sensor_id;sensor_type;location;lat;lon;timestamp;P1;durP1;ratioP1;P2;durP2;ratioP2
29550;SDS011;16488;52.396;10.696;2023-06-22T00:00:58;21.35;;;16.17;;
29550;SDS011;16488;52.396;10.696;2023-06-22T00:03:24;23.88;;;14.55;;
29550;SDS011;16488;52.396;10.696;2023-06-22T00:08:17;20.42;;;14.50;;
29550;SDS011;16488;52.396;10.696;2023-06-22T00:10:43;20.48;;;14.60;;
29550;SDS011;16488;52.396;10.696;2023-06-22T00:15:36;19.55;;;14.00;;
29550;SDS011;16488;52.396;10.696;2023-06-22T00:18:03;16.70;;;14.27;;
29550;SDS011;16488;52.396;10.696;2023-06-22T00:20:29;18.25;;;13.80;;
29550;SDS011;16488;52.396;10.696;2023-06-22T00:22:55;18.02;;;14.43;;
29550;SDS011;16488;52.396;10.696;2023-06-22T00:25:22;18.10;;;13.82;;
29550;SDS011;16488;52.396;10.696;2023-06-22T00:27:48;17.50;;;13.13;;
29550;SDS011;16488;52.396;10.696;2023-06-22T00:30:17;22.25;;;14.15;;
29550;SDS011;16488;52.396;10.696;2023-06-22T00:32:44;18.92;;;13.95;;
29550;SDS011;16488;52.396;10.696;2023-06-22T00:35:11;20.50;;;14.63;;
29550;SDS011;16488;52.396;10.696;2023-06-22T00:37:37;18.80;;;14.90;;
29550;SDS011;16488;52.396;10.696;2023-06-22T00:40:05;22.05;;;15.30;;
29550;SDS011;16488;52.396;10.696;2023-06-22T00:42:32;22.33;;;16.08;;
29550;SDS011;16488;52.396;10.696;2023-06-22T00:44:58;22.20;;;15.53;;
29550;SDS011;16488;52.396;10.696;2023-06-22T00:47:23;20.43;;;15.50;;
29550;SDS011;16488;52.396;10.696;2023-06-22T00:49:49;31.08;;;16.73;;
29550;SDS011;16488;52.396;10.696;2023-06-22T00:52:21;20.65;;;14.45;;
29550;SDS011;16488;52.396;10.696;2023-06-22T00:54:52;20.02;;;14.77;;
29550;SDS011;16488;52.396;10.696;2023-06-22T00:57:18;25.42;;;15.02;;
29550;SDS011;16488;52.396;10.696;2023-06-22T00:59:45;23.00;;;14.63;;
29550;SDS011;16488;52.396;10.696;2023-06-22T01:02:12;21.50;;;15.20;;
29550;SDS011;16488;52.396;10.696;2023-06-22T01:04:38;23.08;;;16.55;;
29550;SDS011;16488;52.396;10.696;2023-06-22T01:10:09;24.98;;;17.98;;
29550;SDS011;16488;52.396;10.696;2023-06-22T01:12:49;23.65;;;17.95;;
29550;SDS011;16488;52.396;10.696;2023-06-22T01:15:33;21.95;;;16.27;;
29550;SDS011;16488;52.396;10.696;2023-06-22T01:18:04;27.67;;;16.77;;
29550;SDS011;16488;52.396;10.696;2023-06-22T01:20:34;27.75;;;14.85;;
29550;SDS011;16488;52.396;10.696;2023-06-22T01:25:48;19.08;;;15.13;;
29550;SDS011;16488;52.396;10.696;2023-06-22T01:31:09;21.35;;;14.43;;
29550;SDS011;16488;52.396;10.696;2023-06-22T01:33:39;18.15;;;14.30;;
29550;SDS011;16488;52.396;10.696;2023-06-22T01:36:07;20.05;;;15.07;;
29550;SDS011;16488;52.396;10.696;2023-06-22T01:38:34;17.67;;;14.27;;
29550;SDS011;16488;52.396;10.696;2023-06-22T01:41:01;20.63;;;15.45;;
29550;SDS011;16488;52.396;10.696;2023-06-22T01:43:28;21.08;;;15.30;;
29550;SDS011;16488;52.396;10.696;2023-06-22T01:45:55;19.13;;;14.63;;
29550;SDS011;16488;52.396;10.696;2023-06-22T01:48:22;19.88;;;14.55;;
29550;SDS011;16488;52.396;10.696;2023-06-22T01:50:48;22.50;;;15.40;;
29550;SDS011;16488;52.396;10.696;2023-06-22T01:53:14;21.20;;;15.40;;
29550;SDS011;16488;52.396;10.696;2023-06-22T01:55:39;20.35;;;14.27;;
29550;SDS011;16488;52.396;10.696;2023-06-22T01:58:05;20.25;;;14.90;;
29550;SDS011;16488;52.396;10.696;2023-06-22T02:00:35;19.67;;;15.13;;
29550;SDS011;16488;52.396;10.696;2023-06-22T02:03:19;22.63;;;14.38;;
29550;SDS011;16488;52.396;10.696;2023-06-22T02:05:50;20.10;;;14.80;;
29550;SDS011;16488;52.396;10.696;2023-06-22T02:08:24;18.00;;;14.05;;
29550;SDS011;16488;52.396;10.696;2023-06-22T02:10:54;24.90;;;15.05;;
29550;SDS011;16488;52.396;10.696;2023-06-22T02:13:23;24.60;;;17.15;;
29550;SDS011;16488;52.396;10.696;2023-06-22T02:15:49;29.92;;;16.63;;
29550;SDS011;16488;52.396;10.696;2023-06-22T02:20:41;23.77;;;15.55;;
29550;SDS011;16488;52.396;10.696;2023-06-22T02:23:07;21.55;;;16.15;;
29550;SDS011;16488;52.396;10.696;2023-06-22T02:25:33;23.85;;;14.23;;
29550;SDS011;16488;52.396;10.696;2023-06-22T02:30:25;22.58;;;13.85;;
29550;SDS011;16488;52.396;10.696;2023-06-22T02:32:50;20.13;;;14.55;;
29550;SDS011;16488;52.396;10.696;2023-06-22T02:35:23;20.45;;;13.95;;
29550;SDS011;16488;52.396;10.696;2023-06-22T02:38:00;19.00;;;14.35;;
29550;SDS011;16488;52.396;10.696;2023-06-22T02:40:27;18.95;;;13.55;;
29550;SDS011;16488;52.396;10.696;2023-06-22T02:42:54;21.60;;;13.95;;
29550;SDS011;16488;52.396;10.696;2023-06-22T02:45:20;20.45;;;13.43;;
29550;SDS011;16488;52.396;10.696;2023-06-22T02:47:46;17.73;;;13.32;;
29550;SDS011;16488;52.396;10.696;2023-06-22T02:50:12;19.25;;;14.65;;
29550;SDS011;16488;52.396;10.696;2023-06-22T02:52:39;21.70;;;14.05;;
29550;SDS011;16488;52.396;10.696;2023-06-22T02:55:05;20.35;;;14.18;;
29550;SDS011;16488;52.396;10.696;2023-06-22T02:57:32;18.35;;;12.88;;
29550;SDS011;16488;52.396;10.696;2023-06-22T02:59:58;24.92;;;14.65;;
29550;SDS011;16488;52.396;10.696;2023-06-22T03:02:24;19.90;;;14.55;;
29550;SDS011;16488;52.396;10.696;2023-06-22T03:04:51;21.48;;;15.25;;
29550;SDS011;16488;52.396;10.696;2023-06-22T03:07:18;21.75;;;14.73;;
29550;SDS011;16488;52.396;10.696;2023-06-22T03:09:44;24.95;;;15.80;;
29550;SDS011;16488;52.396;10.696;2023-06-22T03:12:10;24.38;;;15.20;;
29550;SDS011;16488;52.396;10.696;2023-06-22T03:14:36;22.70;;;16.15;;
29550;SDS011;16488;52.396;10.696;2023-06-22T03:17:01;22.85;;;16.35;;
29550;SDS011;16488;52.396;10.696;2023-06-22T03:19:28;17.83;;;14.15;;
29550;SDS011;16488;52.396;10.696;2023-06-22T03:21:56;22.08;;;14.32;;
29550;SDS011;16488;52.396;10.696;2023-06-22T03:24:22;17.27;;;14.00;;
29550;SDS011;16488;52.396;10.696;2023-06-22T03:26:47;21.52;;;13.35;;
29550;SDS011;16488;52.396;10.696;2023-06-22T03:29:13;21.48;;;14.77;;
29550;SDS011;16488;52.396;10.696;2023-06-22T03:31:39;21.17;;;14.48;;
29550;SDS011;16488;52.396;10.696;2023-06-22T03:34:04;22.55;;;14.77;;
29550;SDS011;16488;52.396;10.696;2023-06-22T03:36:30;27.48;;;15.88;;
29550;SDS011;16488;52.396;10.696;2023-06-22T03:38:56;24.15;;;15.88;;
29550;SDS011;16488;52.396;10.696;2023-06-22T03:41:21;24.80;;;16.57;;
29550;SDS011;16488;52.396;10.696;2023-06-22T03:43:47;27.42;;;17.85;;
29550;SDS011;16488;52.396;10.696;2023-06-22T03:46:12;31.80;;;18.17;;
29550;SDS011;16488;52.396;10.696;2023-06-22T03:48:38;23.15;;;18.10;;
29550;SDS011;16488;52.396;10.696;2023-06-22T03:51:03;25.30;;;17.05;;
29550;SDS011;16488;52.396;10.696;2023-06-22T03:53:29;24.42;;;17.55;;
29550;SDS011;16488;52.396;10.696;2023-06-22T03:55:55;25.80;;;18.55;;
29550;SDS011;16488;52.396;10.696;2023-06-22T03:58:21;23.85;;;17.63;;
29550;SDS011;16488;52.396;10.696;2023-06-22T04:00:47;21.15;;;15.65;;
29550;SDS011;16488;52.396;10.696;2023-06-22T04:03:14;22.60;;;15.02;;
29550;SDS011;16488;52.396;10.696;2023-06-22T04:05:40;24.23;;;15.52;;
29550;SDS011;16488;52.396;10.696;2023-06-22T04:08:06;21.45;;;14.52;;
29550;SDS011;16488;52.396;10.696;2023-06-22T04:10:33;22.67;;;13.75;;
29550;SDS011;16488;52.396;10.696;2023-06-22T04:12:58;27.92;;;15.43;;
29550;SDS011;16488;52.396;10.696;2023-06-22T04:15:24;25.13;;;13.90;;
29550;SDS011;16488;52.396;10.696;2023-06-22T04:17:50;19.87;;;13.53;;
29550;SDS011;16488;52.396;10.696;2023-06-22T04:20:15;21.27;;;14.10;;
29550;SDS011;16488;52.396;10.696;2023-06-22T04:22:41;20.25;;;15.07;;
29550;SDS011;16488;52.396;10.696;2023-06-22T04:25:07;29.73;;;16.20;;
29550;SDS011;16488;52.396;10.696;2023-06-22T04:27:33;23.33;;;14.48;;
29550;SDS011;16488;52.396;10.696;2023-06-22T04:30:05;23.83;;;14.63;;
29550;SDS011;16488;52.396;10.696;2023-06-22T04:32:32;27.98;;;14.38;;
29550;SDS011;16488;52.396;10.696;2023-06-22T04:34:59;23.63;;;13.70;;
29550;SDS011;16488;52.396;10.696;2023-06-22T04:37:27;22.10;;;14.05;;
29550;SDS011;16488;52.396;10.696;2023-06-22T04:39:56;26.88;;;14.00;;
29550;SDS011;16488;52.396;10.696;2023-06-22T04:42:22;15.35;;;12.00;;
29550;SDS011;16488;52.396;10.696;2023-06-22T04:44:47;16.93;;;10.70;;
29550;SDS011;16488;52.396;10.696;2023-06-22T04:47:13;14.05;;;10.57;;
29550;SDS011;16488;52.396;10.696;2023-06-22T04:49:38;12.93;;;10.55;;
29550;SDS011;16488;52.396;10.696;2023-06-22T04:52:06;13.40;;;8.93;;
29550;SDS011;16488;52.396;10.696;2023-06-22T04:54:33;12.43;;;8.88;;
29550;SDS011;16488;52.396;10.696;2023-06-22T04:57:00;12.82;;;8.45;;
29550;SDS011;16488;52.396;10.696;2023-06-22T04:59:27;11.45;;;8.63;;
29550;SDS011;16488;52.396;10.696;2023-06-22T05:01:55;11.35;;;7.65;;
29550;SDS011;16488;52.396;10.696;2023-06-22T05:04:25;13.45;;;8.45;;
29550;SDS011;16488;52.396;10.696;2023-06-22T05:06:52;12.10;;;9.60;;
29550;SDS011;16488;52.396;10.696;2023-06-22T05:09:19;13.82;;;9.40;;
29550;SDS011;16488;52.396;10.696;2023-06-22T05:14:11;14.25;;;7.43;;
29550;SDS011;16488;52.396;10.696;2023-06-22T05:16:37;9.98;;;8.45;;
29550;SDS011;16488;52.396;10.696;2023-06-22T05:19:04;10.65;;;8.30;;
29550;SDS011;16488;52.396;10.696;2023-06-22T05:21:30;13.13;;;8.27;;
29550;SDS011;16488;52.396;10.696;2023-06-22T05:23:56;10.82;;;8.02;;
29550;SDS011;16488;52.396;10.696;2023-06-22T05:26:27;12.13;;;8.40;;
29550;SDS011;16488;52.396;10.696;2023-06-22T05:28:57;11.40;;;9.05;;
29550;SDS011;16488;52.396;10.696;2023-06-22T05:31:24;11.95;;;8.65;;
29550;SDS011;16488;52.396;10.696;2023-06-22T05:33:51;12.73;;;9.07;;
29550;SDS011;16488;52.396;10.696;2023-06-22T05:36:17;15.02;;;8.70;;
29550;SDS011;16488;52.396;10.696;2023-06-22T05:38:50;12.05;;;8.25;;
29550;SDS011;16488;52.396;10.696;2023-06-22T05:41:16;14.02;;;8.77;;
29550;SDS011;16488;52.396;10.696;2023-06-22T05:43:41;14.73;;;8.65;;
29550;SDS011;16488;52.396;10.696;2023-06-22T05:46:07;14.10;;;9.68;;
29550;SDS011;16488;52.396;10.696;2023-06-22T05:48:32;12.00;;;10.00;;
29550;SDS011;16488;52.396;10.696;2023-06-22T05:50:58;12.88;;;9.30;;
29550;SDS011;16488;52.396;10.696;2023-06-22T05:53:24;11.73;;;8.50;;
29550;SDS011;16488;52.396;10.696;2023-06-22T05:55:50;14.88;;;9.18;;
29550;SDS011;16488;52.396;10.696;2023-06-22T05:58:15;15.00;;;8.52;;
29550;SDS011;16488;52.396;10.696;2023-06-22T06:00:41;9.80;;;8.05;;
29550;SDS011;16488;52.396;10.696;2023-06-22T06:03:08;13.20;;;8.40;;
29550;SDS011;16488;52.396;10.696;2023-06-22T06:05:35;10.80;;;8.15;;
29550;SDS011;16488;52.396;10.696;2023-06-22T06:08:01;16.45;;;8.98;;
29550;SDS011;16488;52.396;10.696;2023-06-22T06:10:29;14.18;;;8.00;;
29550;SDS011;16488;52.396;10.696;2023-06-22T06:12:56;22.42;;;9.50;;
29550;SDS011;16488;52.396;10.696;2023-06-22T06:15:22;13.25;;;9.45;;
29550;SDS011;16488;52.396;10.696;2023-06-22T06:17:51;12.65;;;8.02;;
29550;SDS011;16488;52.396;10.696;2023-06-22T06:20:18;16.63;;;8.15;;
29550;SDS011;16488;52.396;10.696;2023-06-22T06:22:44;12.35;;;8.98;;
29550;SDS011;16488;52.396;10.696;2023-06-22T06:25:10;15.00;;;8.73;;
29550;SDS011;16488;52.396;10.696;2023-06-22T06:27:40;11.73;;;8.50;;
29550;SDS011;16488;52.396;10.696;2023-06-22T06:30:10;12.40;;;9.48;;
29550;SDS011;16488;52.396;10.696;2023-06-22T06:32:36;13.18;;;7.97;;
29550;SDS011;16488;52.396;10.696;2023-06-22T06:35:03;12.70;;;9.10;;
29550;SDS011;16488;52.396;10.696;2023-06-22T06:37:30;11.65;;;8.60;;
29550;SDS011;16488;52.396;10.696;2023-06-22T06:39:57;12.05;;;8.70;;
29550;SDS011;16488;52.396;10.696;2023-06-22T06:42:22;12.90;;;7.70;;
29550;SDS011;16488;52.396;10.696;2023-06-22T06:44:49;13.02;;;9.00;;
29550;SDS011;16488;52.396;10.696;2023-06-22T06:47:15;11.45;;;8.25;;
29550;SDS011;16488;52.396;10.696;2023-06-22T06:49:42;11.45;;;8.75;;
29550;SDS011;16488;52.396;10.696;2023-06-22T06:52:07;11.80;;;8.82;;
29550;SDS011;16488;52.396;10.696;2023-06-22T06:54:33;14.02;;;9.00;;
29550;SDS011;16488;52.396;10.696;2023-06-22T06:56:59;12.77;;;9.85;;
29550;SDS011;16488;52.396;10.696;2023-06-22T06:59:24;16.42;;;9.32;;
29550;SDS011;16488;52.396;10.696;2023-06-22T07:01:50;15.55;;;9.20;;
29550;SDS011;16488;52.396;10.696;2023-06-22T07:04:16;11.02;;;8.82;;
29550;SDS011;16488;52.396;10.696;2023-06-22T07:06:41;13.82;;;9.00;;
29550;SDS011;16488;52.396;10.696;2023-06-22T07:09:07;13.05;;;8.65;;
29550;SDS011;16488;52.396;10.696;2023-06-22T07:11:33;13.65;;;8.07;;
29550;SDS011;16488;52.396;10.696;2023-06-22T07:14:00;13.70;;;9.68;;
29550;SDS011;16488;52.396;10.696;2023-06-22T07:16:26;16.05;;;9.40;;
29550;SDS011;16488;52.396;10.696;2023-06-22T07:18:52;11.38;;;7.85;;
29550;SDS011;16488;52.396;10.696;2023-06-22T07:21:18;10.45;;;8.23;;
29550;SDS011;16488;52.396;10.696;2023-06-22T07:23:44;14.25;;;9.77;;
29550;SDS011;16488;52.396;10.696;2023-06-22T07:26:09;13.73;;;9.60;;
29550;SDS011;16488;52.396;10.696;2023-06-22T07:28:37;18.60;;;10.27;;
29550;SDS011;16488;52.396;10.696;2023-06-22T07:31:05;15.82;;;10.48;;
29550;SDS011;16488;52.396;10.696;2023-06-22T07:33:31;16.83;;;10.23;;
29550;SDS011;16488;52.396;10.696;2023-06-22T07:35:56;11.07;;;8.65;;
29550;SDS011;16488;52.396;10.696;2023-06-22T07:38:22;13.30;;;8.82;;
29550;SDS011;16488;52.396;10.696;2023-06-22T07:40:47;13.25;;;9.07;;
29550;SDS011;16488;52.396;10.696;2023-06-22T07:43:13;13.23;;;8.88;;
29550;SDS011;16488;52.396;10.696;2023-06-22T07:45:39;15.40;;;11.55;;
29550;SDS011;16488;52.396;10.696;2023-06-22T07:48:05;24.50;;;16.15;;
29550;SDS011;16488;52.396;10.696;2023-06-22T07:50:32;18.40;;;11.82;;
29550;SDS011;16488;52.396;10.696;2023-06-22T07:52:57;14.63;;;9.90;;
29550;SDS011;16488;52.396;10.696;2023-06-22T07:55:23;13.80;;;10.02;;
29550;SDS011;16488;52.396;10.696;2023-06-22T07:57:49;20.52;;;12.85;;
29550;SDS011;16488;52.396;10.696;2023-06-22T08:00:16;18.77;;;11.48;;
29550;SDS011;16488;52.396;10.696;2023-06-22T08:02:43;17.98;;;10.88;;
29550;SDS011;16488;52.396;10.696;2023-06-22T08:05:10;15.48;;;10.80;;
29550;SDS011;16488;52.396;10.696;2023-06-22T08:07:36;15.02;;;11.63;;
29550;SDS011;16488;52.396;10.696;2023-06-22T08:12:29;24.85;;;16.65;;
29550;SDS011;16488;52.396;10.696;2023-06-22T08:14:54;15.18;;;12.15;;
29550;SDS011;16488;52.396;10.696;2023-06-22T08:17:21;22.02;;;14.82;;
29550;SDS011;16488;52.396;10.696;2023-06-22T08:22:13;17.45;;;12.32;;
29550;SDS011;16488;52.396;10.696;2023-06-22T08:24:39;18.50;;;13.05;;
29550;SDS011;16488;52.396;10.696;2023-06-22T08:27:06;25.50;;;14.98;;
29550;SDS011;16488;52.396;10.696;2023-06-22T08:29:34;24.88;;;16.95;;
29550;SDS011;16488;52.396;10.696;2023-06-22T08:32:00;19.70;;;13.10;;
29550;SDS011;16488;52.396;10.696;2023-06-22T08:34:26;16.98;;;13.52;;
29550;SDS011;16488;52.396;10.696;2023-06-22T08:36:52;18.90;;;13.57;;
29550;SDS011;16488;52.396;10.696;2023-06-22T08:39:20;24.48;;;13.73;;
29550;SDS011;16488;52.396;10.696;2023-06-22T08:41:47;26.77;;;17.35;;
29550;SDS011;16488;52.396;10.696;2023-06-22T08:44:13;21.25;;;14.55;;
29550;SDS011;16488;52.396;10.696;2023-06-22T08:46:38;40.53;;;21.75;;
29550;SDS011;16488;52.396;10.696;2023-06-22T08:49:05;25.40;;;18.15;;
29550;SDS011;16488;52.396;10.696;2023-06-22T08:51:31;20.00;;;14.55;;
29550;SDS011;16488;52.396;10.696;2023-06-22T08:53:57;18.73;;;14.50;;
29550;SDS011;16488;52.396;10.696;2023-06-22T08:56:23;20.20;;;13.88;;
29550;SDS011;16488;52.396;10.696;2023-06-22T08:58:48;21.63;;;15.55;;
29550;SDS011;16488;52.396;10.696;2023-06-22T09:01:14;17.90;;;14.45;;
29550;SDS011;16488;52.396;10.696;2023-06-22T09:03:40;19.20;;;13.32;;
29550;SDS011;16488;52.396;10.696;2023-06-22T09:06:06;17.70;;;14.30;;
29550;SDS011;16488;52.396;10.696;2023-06-22T09:08:34;18.17;;;13.57;;
29550;SDS011;16488;52.396;10.696;2023-06-22T09:11:00;19.08;;;13.77;;
29550;SDS011;16488;52.396;10.696;2023-06-22T09:13:25;19.42;;;13.63;;
29550;SDS011;16488;52.396;10.696;2023-06-22T09:15:51;21.13;;;13.93;;
29550;SDS011;16488;52.396;10.696;2023-06-22T09:18:17;16.65;;;12.50;;
29550;SDS011;16488;52.396;10.696;2023-06-22T09:20:43;21.67;;;14.75;;
29550;SDS011;16488;52.396;10.696;2023-06-22T09:23:09;20.55;;;14.20;;
29550;SDS011;16488;52.396;10.696;2023-06-22T09:25:35;16.90;;;13.02;;
29550;SDS011;16488;52.396;10.696;2023-06-22T09:28:01;19.95;;;14.13;;
29550;SDS011;16488;52.396;10.696;2023-06-22T09:30:26;15.88;;;12.95;;
29550;SDS011;16488;52.396;10.696;2023-06-22T09:32:52;18.92;;;13.05;;
29550;SDS011;16488;52.396;10.696;2023-06-22T09:35:17;17.02;;;13.55;;
29550;SDS011;16488;52.396;10.696;2023-06-22T09:37:43;16.95;;;14.05;;
29550;SDS011;16488;52.396;10.696;2023-06-22T09:40:09;17.27;;;14.27;;
29550;SDS011;16488;52.396;10.696;2023-06-22T09:42:36;17.35;;;12.40;;
29550;SDS011;16488;52.396;10.696;2023-06-22T09:45:02;15.93;;;13.73;;
29550;SDS011;16488;52.396;10.696;2023-06-22T09:47:27;15.55;;;12.63;;
29550;SDS011;16488;52.396;10.696;2023-06-22T09:49:54;20.73;;;13.43;;
29550;SDS011;16488;52.396;10.696;2023-06-22T09:52:20;18.02;;;13.25;;
29550;SDS011;16488;52.396;10.696;2023-06-22T09:54:46;27.55;;;14.90;;
29550;SDS011;16488;52.396;10.696;2023-06-22T09:57:12;21.45;;;14.73;;
29550;SDS011;16488;52.396;10.696;2023-06-22T09:59:38;19.05;;;13.77;;
29550;SDS011;16488;52.396;10.696;2023-06-22T10:02:06;20.05;;;14.15;;
29550;SDS011;16488;52.396;10.696;2023-06-22T10:04:33;18.25;;;13.32;;
29550;SDS011;16488;52.396;10.696;2023-06-22T10:06:59;20.30;;;12.43;;
29550;SDS011;16488;52.396;10.696;2023-06-22T10:09:26;25.88;;;13.20;;
29550;SDS011;16488;52.396;10.696;2023-06-22T10:11:51;17.75;;;13.23;;
29550;SDS011;16488;52.396;10.696;2023-06-22T10:14:17;17.33;;;13.05;;
29550;SDS011;16488;52.396;10.696;2023-06-22T10:16:43;17.80;;;13.57;;
29550;SDS011;16488;52.396;10.696;2023-06-22T10:19:09;16.98;;;14.07;;
29550;SDS011;16488;52.396;10.696;2023-06-22T10:21:34;20.00;;;14.30;;
29550;SDS011;16488;52.396;10.696;2023-06-22T10:24:00;16.17;;;12.95;;
29550;SDS011;16488;52.396;10.696;2023-06-22T10:26:31;14.68;;;11.90;;
29550;SDS011;16488;52.396;10.696;2023-06-22T10:28:57;17.70;;;13.52;;
29550;SDS011;16488;52.396;10.696;2023-06-22T10:31:23;15.55;;;12.50;;
29550;SDS011;16488;52.396;10.696;2023-06-22T10:33:48;17.55;;;13.45;;
29550;SDS011;16488;52.396;10.696;2023-06-22T10:36:14;21.20;;;13.75;;
29550;SDS011;16488;52.396;10.696;2023-06-22T10:38:40;17.15;;;13.30;;
29550;SDS011;16488;52.396;10.696;2023-06-22T10:41:05;18.17;;;13.02;;
29550;SDS011;16488;52.396;10.696;2023-06-22T10:43:31;20.48;;;13.32;;
29550;SDS011;16488;52.396;10.696;2023-06-22T10:45:57;15.23;;;12.13;;
29550;SDS011;16488;52.396;10.696;2023-06-22T10:48:23;13.82;;;12.43;;
29550;SDS011;16488;52.396;10.696;2023-06-22T10:50:49;18.83;;;12.15;;
29550;SDS011;16488;52.396;10.696;2023-06-22T10:53:14;15.95;;;12.75;;
29550;SDS011;16488;52.396;10.696;2023-06-22T10:55:40;14.13;;;12.23;;
29550;SDS011;16488;52.396;10.696;2023-06-22T10:58:05;15.05;;;12.98;;
29550;SDS011;16488;52.396;10.696;2023-06-22T11:00:31;15.15;;;12.88;;
29550;SDS011;16488;52.396;10.696;2023-06-22T11:02:56;14.02;;;11.73;;
29550;SDS011;16488;52.396;10.696;2023-06-22T11:05:23;16.90;;;13.50;;
29550;SDS011;16488;52.396;10.696;2023-06-22T11:07:48;18.23;;;13.93;;
29550;SDS011;16488;52.396;10.696;2023-06-22T11:10:15;18.15;;;13.35;;
29550;SDS011;16488;52.396;10.696;2023-06-22T11:12:41;19.25;;;12.50;;
29550;SDS011;16488;52.396;10.696;2023-06-22T11:17:33;25.90;;;13.20;;
29550;SDS011;16488;52.396;10.696;2023-06-22T11:19:59;18.15;;;12.52;;
29550;SDS011;16488;52.396;10.696;2023-06-22T11:22:25;17.55;;;13.88;;
29550;SDS011;16488;52.396;10.696;2023-06-22T11:24:51;22.83;;;14.63;;
29550;SDS011;16488;52.396;10.696;2023-06-22T11:27:16;18.77;;;12.40;;
29550;SDS011;16488;52.396;10.696;2023-06-22T11:29:42;16.73;;;13.25;;
29550;SDS011;16488;52.396;10.696;2023-06-22T11:32:07;14.50;;;12.88;;
29550;SDS011;16488;52.396;10.696;2023-06-22T11:34:33;16.42;;;12.45;;
29550;SDS011;16488;52.396;10.696;2023-06-22T11:36:59;17.30;;;12.30;;
29550;SDS011;16488;52.396;10.696;2023-06-22T11:39:25;14.00;;;12.43;;
29550;SDS011;16488;52.396;10.696;2023-06-22T11:41:51;14.88;;;12.77;;
29550;SDS011;16488;52.396;10.696;2023-06-22T11:44:16;13.15;;;11.65;;
29550;SDS011;16488;52.396;10.696;2023-06-22T11:46:42;12.57;;;11.30;;
29550;SDS011;16488;52.396;10.696;2023-06-22T11:49:08;18.40;;;11.35;;
29550;SDS011;16488;52.396;10.696;2023-06-22T11:51:33;16.27;;;11.35;;
29550;SDS011;16488;52.396;10.696;2023-06-22T11:53:59;12.35;;;11.02;;
29550;SDS011;16488;52.396;10.696;2023-06-22T11:56:24;12.15;;;10.57;;
29550;SDS011;16488;52.396;10.696;2023-06-22T11:58:50;11.63;;;10.43;;
29550;SDS011;16488;52.396;10.696;2023-06-22T12:01:16;15.63;;;11.55;;
29550;SDS011;16488;52.396;10.696;2023-06-22T12:03:41;15.57;;;10.35;;
29550;SDS011;16488;52.396;10.696;2023-06-22T12:06:09;15.02;;;11.63;;
29550;SDS011;16488;52.396;10.696;2023-06-22T12:08:34;13.20;;;9.93;;
29550;SDS011;16488;52.396;10.696;2023-06-22T12:11:00;13.23;;;10.10;;
29550;SDS011;16488;52.396;10.696;2023-06-22T12:13:25;14.55;;;10.73;;
29550;SDS011;16488;52.396;10.696;2023-06-22T12:15:51;12.38;;;9.63;;
29550;SDS011;16488;52.396;10.696;2023-06-22T12:18:19;11.40;;;10.15;;
29550;SDS011;16488;52.396;10.696;2023-06-22T12:20:48;13.77;;;10.15;;
29550;SDS011;16488;52.396;10.696;2023-06-22T12:23:14;15.75;;;9.93;;
29550;SDS011;16488;52.396;10.696;2023-06-22T12:25:40;12.00;;;10.07;;
29550;SDS011;16488;52.396;10.696;2023-06-22T12:28:05;13.48;;;10.82;;
29550;SDS011;16488;52.396;10.696;2023-06-22T12:30:34;13.57;;;10.23;;
29550;SDS011;16488;52.396;10.696;2023-06-22T12:33:00;16.52;;;11.55;;
29550;SDS011;16488;52.396;10.696;2023-06-22T12:35:25;14.85;;;9.90;;
29550;SDS011;16488;52.396;10.696;2023-06-22T12:37:51;12.90;;;10.00;;
29550;SDS011;16488;52.396;10.696;2023-06-22T12:40:16;12.85;;;11.13;;
29550;SDS011;16488;52.396;10.696;2023-06-22T12:42:42;17.90;;;11.02;;
29550;SDS011;16488;52.396;10.696;2023-06-22T12:45:08;15.23;;;11.13;;
29550;SDS011;16488;52.396;10.696;2023-06-22T12:47:34;13.10;;;10.60;;
29550;SDS011;16488;52.396;10.696;2023-06-22T12:50:00;11.23;;;10.13;;
29550;SDS011;16488;52.396;10.696;2023-06-22T12:52:25;14.63;;;9.88;;
29550;SDS011;16488;52.396;10.696;2023-06-22T12:54:51;14.90;;;9.85;;
29550;SDS011;16488;52.396;10.696;2023-06-22T12:57:17;11.32;;;9.65;;
29550;SDS011;16488;52.396;10.696;2023-06-22T12:59:44;14.15;;;11.00;;
29550;SDS011;16488;52.396;10.696;2023-06-22T13:02:10;13.98;;;10.32;;
29550;SDS011;16488;52.396;10.696;2023-06-22T13:04:36;12.27;;;10.13;;
29550;SDS011;16488;52.396;10.696;2023-06-22T13:07:01;12.77;;;10.20;;
29550;SDS011;16488;52.396;10.696;2023-06-22T13:09:27;12.20;;;10.68;;
29550;SDS011;16488;52.396;10.696;2023-06-22T13:14:18;20.35;;;14.40;;
29550;SDS011;16488;52.396;10.696;2023-06-22T13:16:44;15.07;;;12.30;;
29550;SDS011;16488;52.396;10.696;2023-06-22T13:19:09;12.73;;;10.93;;
29550;SDS011;16488;52.396;10.696;2023-06-22T13:21:35;14.35;;;11.45;;
29550;SDS011;16488;52.396;10.696;2023-06-22T13:24:00;19.00;;;11.18;;
29550;SDS011;16488;52.396;10.696;2023-06-22T13:26:26;15.88;;;10.82;;
29550;SDS011;16488;52.396;10.696;2023-06-22T13:28:53;15.27;;;10.60;;
29550;SDS011;16488;52.396;10.696;2023-06-22T13:31:19;19.15;;;10.05;;
29550;SDS011;16488;52.396;10.696;2023-06-22T13:33:45;13.20;;;10.32;;
29550;SDS011;16488;52.396;10.696;2023-06-22T13:36:13;13.75;;;10.15;;
29550;SDS011;16488;52.396;10.696;2023-06-22T13:38:38;13.75;;;10.38;;
29550;SDS011;16488;52.396;10.696;2023-06-22T13:41:07;13.68;;;9.23;;
29550;SDS011;16488;52.396;10.696;2023-06-22T13:43:32;13.85;;;9.57;;
29550;SDS011;16488;52.396;10.696;2023-06-22T13:45:58;11.93;;;9.40;;
29550;SDS011;16488;52.396;10.696;2023-06-22T13:48:24;13.10;;;9.95;;
29550;SDS011;16488;52.396;10.696;2023-06-22T13:50:51;18.50;;;9.85;;
29550;SDS011;16488;52.396;10.696;2023-06-22T13:53:16;14.50;;;10.32;;
29550;SDS011;16488;52.396;10.696;2023-06-22T13:55:42;12.40;;;10.38;;
29550;SDS011;16488;52.396;10.696;2023-06-22T13:58:08;12.00;;;9.43;;
29550;SDS011;16488;52.396;10.696;2023-06-22T14:00:33;14.07;;;10.00;;
29550;SDS011;16488;52.396;10.696;2023-06-22T14:02:59;12.23;;;10.40;;
29550;SDS011;16488;52.396;10.696;2023-06-22T14:05:24;12.93;;;9.75;;
29550;SDS011;16488;52.396;10.696;2023-06-22T14:07:50;14.48;;;10.00;;
29550;SDS011;16488;52.396;10.696;2023-06-22T14:10:17;13.38;;;10.45;;
29550;SDS011;16488;52.396;10.696;2023-06-22T14:12:42;16.83;;;11.18;;
29550;SDS011;16488;52.396;10.696;2023-06-22T14:15:08;13.73;;;9.57;;
29550;SDS011;16488;52.396;10.696;2023-06-22T14:17:34;11.32;;;9.73;;
29550;SDS011;16488;52.396;10.696;2023-06-22T14:19:59;14.20;;;10.75;;
29550;SDS011;16488;52.396;10.696;2023-06-22T14:22:25;11.52;;;10.23;;
29550;SDS011;16488;52.396;10.696;2023-06-22T14:24:54;12.52;;;9.82;;
29550;SDS011;16488;52.396;10.696;2023-06-22T14:27:22;13.20;;;9.45;;
29550;SDS011;16488;52.396;10.696;2023-06-22T14:29:48;12.80;;;9.27;;
29550;SDS011;16488;52.396;10.696;2023-06-22T14:32:13;11.77;;;10.10;;
29550;SDS011;16488;52.396;10.696;2023-06-22T14:34:39;13.82;;;10.73;;
29550;SDS011;16488;52.396;10.696;2023-06-22T14:37:06;12.02;;;9.05;;